createdAt,value
2022-12-28T00:04:10.047Z,0.30
2022-12-28T00:09:13.318Z,0.10
2022-12-28T00:14:15.731Z,0.68
2022-12-28T00:19:18.433Z,0.10
2022-12-28T00:24:22.843Z,0.10
2022-12-28T00:29:25.128Z,0.10
2022-12-28T00:34:27.487Z,0.10
2022-12-28T00:39:29.800Z,0.10
2022-12-28T00:44:32.141Z,0.10
2022-12-28T00:49:34.408Z,0.10
2022-12-28T00:54:36.710Z,0.10
2022-12-28T00:59:38.963Z,0.10
2022-12-28T01:04:41.231Z,0.68
2022-12-28T01:09:43.785Z,0.10
2022-12-28T01:14:46.036Z,0.22
2022-12-28T01:19:53.706Z,0.10
2022-12-28T01:24:56.340Z,0.20
2022-12-28T01:29:58.601Z,0.30
2022-12-28T01:35:00.870Z,0.40
2022-12-28T01:40:03.158Z,0.10
2022-12-28T01:45:20.320Z,0.10
2022-12-28T01:50:26.138Z,0.38
2022-12-28T01:55:36.950Z,1.27
2022-12-28T02:00:40.372Z,1.33
2022-12-28T02:05:46.966Z,0.98
2022-12-28T02:10:49.389Z,0.65
2022-12-28T02:15:51.959Z,0.40
2022-12-28T02:21:23.053Z,0.10
2022-12-28T02:26:43.965Z,0.10
2022-12-28T02:32:04.668Z,0.30
2022-12-28T02:37:33.302Z,0.40
2022-12-28T02:42:36.740Z,0.85
2022-12-28T02:48:00.952Z,0.55
2022-12-28T02:53:18.177Z,0.10
2022-12-28T02:58:58.635Z,0.65
2022-12-28T03:04:21.386Z,0.10
2022-12-28T03:09:26.834Z,0.10
2022-12-28T03:15:00.066Z,0.10
2022-12-28T03:20:26.559Z,0.20
2022-12-28T03:25:51.800Z,0.30
2022-12-28T03:31:09.292Z,0.10
2022-12-28T03:36:26.585Z,0.32
2022-12-28T03:41:47.557Z,0.80
2022-12-28T03:47:08.279Z,0.20
2022-12-28T03:52:10.939Z,0.10
2022-12-28T03:57:13.202Z,0.10
2022-12-28T04:02:15.567Z,0.20
2022-12-28T04:07:17.991Z,1.55
2022-12-28T04:12:20.293Z,0.10
2022-12-28T04:17:22.582Z,2.63
2022-12-28T04:22:24.896Z,0.10
2022-12-28T04:27:27.153Z,0.10
2022-12-28T04:32:29.817Z,0.40
2022-12-28T04:37:32.093Z,0.10
2022-12-28T04:42:34.371Z,0.52
2022-12-28T04:47:39.091Z,0.38
2022-12-28T04:52:41.400Z,0.20
2022-12-28T04:57:47.404Z,0.55
2022-12-28T05:02:49.703Z,1.20
2022-12-28T05:07:52.126Z,1.05
2022-12-28T05:12:55.480Z,17.52
2022-12-28T05:17:57.800Z,0.63
2022-12-28T05:23:00.051Z,0.13
2022-12-28T05:28:02.442Z,0.13
2022-12-28T05:33:04.963Z,0.55
2022-12-28T05:38:08.074Z,0.85
2022-12-28T05:43:10.347Z,0.10
2022-12-28T05:48:12.659Z,0.43
2022-12-28T05:53:14.937Z,0.82
2022-12-28T05:58:17.352Z,0.10
2022-12-28T06:03:19.709Z,0.15
2022-12-28T06:08:22.867Z,0.52
2022-12-28T06:13:25.184Z,0.10
2022-12-28T06:18:29.457Z,0.10
2022-12-28T06:23:32.154Z,0.40
2022-12-28T06:28:37.096Z,0.52
2022-12-28T06:33:39.719Z,0.30
2022-12-28T06:38:42.039Z,0.20
2022-12-28T06:43:45.220Z,2.25
2022-12-28T06:48:47.999Z,0.10
2022-12-28T06:53:51.385Z,0.17
2022-12-28T06:59:02.038Z,0.30
2022-12-28T07:04:06.647Z,0.08
2022-12-28T07:09:14.425Z,0.10
2022-12-28T07:14:16.708Z,0.30
2022-12-28T07:19:19.073Z,0.68
2022-12-28T07:24:21.497Z,0.20
2022-12-28T07:29:23.801Z,242.07
2022-12-28T07:34:26.076Z,61.60
2022-12-28T07:39:28.406Z,1999.90
2022-12-28T07:44:34.235Z,1999.90
2022-12-28T07:49:40.507Z,1999.90
2022-12-28T07:54:42.934Z,54.25
2022-12-28T07:59:45.489Z,0.10
2022-12-28T08:04:52.244Z,1999.90
2022-12-28T08:09:54.742Z,1999.90
2022-12-28T08:15:01.135Z,557.40
2022-12-28T08:20:03.660Z,0.32
2022-12-28T08:25:06.505Z,0.17
2022-12-28T08:30:09.641Z,1.65
2022-12-28T08:35:12.004Z,1.05
2022-12-28T08:40:14.306Z,1.40
2022-12-28T08:45:16.579Z,0.85
2022-12-28T08:50:20.175Z,12.43
2022-12-28T08:55:23.584Z,1999.90
2022-12-28T09:00:25.847Z,1999.90
2022-12-28T09:05:28.466Z,1999.90
2022-12-28T09:10:30.775Z,1999.90
2022-12-28T09:15:33.169Z,1999.90
2022-12-28T09:20:35.837Z,1999.90
2022-12-28T09:25:38.086Z,1999.90
2022-12-28T09:30:41.150Z,1999.90
2022-12-28T09:35:43.429Z,1999.90
2022-12-28T09:40:45.715Z,1999.90
2022-12-28T09:45:48.446Z,1999.90
2022-12-28T09:50:51.432Z,1999.90
2022-12-28T09:56:18.551Z,1999.90
2022-12-28T10:01:22.653Z,1999.90
2022-12-28T10:06:29.923Z,1999.90
2022-12-28T10:11:35.960Z,1999.90
2022-12-28T10:16:44.034Z,1999.90
2022-12-28T10:22:05.120Z,1999.90
2022-12-28T10:27:20.394Z,1999.90
2022-12-28T10:32:22.817Z,1999.90
2022-12-28T10:37:27.703Z,1999.90
2022-12-28T10:42:41.176Z,1999.90
2022-12-28T10:47:48.933Z,1999.90
2022-12-28T10:52:58.669Z,1999.90
2022-12-28T10:58:36.612Z,1999.90
2022-12-28T11:03:57.287Z,1999.90
2022-12-28T11:09:16.405Z,1999.90
2022-12-28T11:14:32.267Z,1999.90
2022-12-28T11:19:34.664Z,1999.90
2022-12-28T11:24:39.672Z,73.15
2022-12-28T11:29:46.839Z,1999.90
2022-12-28T11:34:50.169Z,1999.90
2022-12-28T11:39:53.819Z,1999.90
2022-12-28T11:44:56.961Z,1999.90
2022-12-28T11:50:34.840Z,1999.90
2022-12-28T11:55:58.376Z,1999.90
2022-12-28T12:01:02.399Z,1999.90
2022-12-28T12:06:04.873Z,1999.90
2022-12-28T12:11:19.007Z,1999.90
2022-12-28T12:16:28.691Z,1999.90
2022-12-28T12:21:35.465Z,1999.90
2022-12-28T12:26:46.767Z,1999.90
2022-12-28T12:31:57.559Z,1999.90
2022-12-28T12:37:06.805Z,1999.90
2022-12-28T12:42:27.572Z,1999.90
2022-12-28T12:47:51.733Z,1999.90
2022-12-28T12:53:15.113Z,1999.90
2022-12-28T12:58:30.072Z,1999.90
2022-12-28T13:03:38.979Z,1999.90
2022-12-28T13:08:42.897Z,1999.90
2022-12-28T13:13:47.726Z,1999.90
2022-12-28T13:19:01.578Z,1999.90
2022-12-28T13:24:04.076Z,1999.90
2022-12-28T13:29:10.520Z,1999.90
2022-12-28T13:34:35.310Z,1999.90
2022-12-28T13:39:42.009Z,1999.90
2022-12-28T13:44:49.966Z,1999.90
2022-12-28T13:49:59.587Z,1999.90
2022-12-28T13:55:10.156Z,1999.90
2022-12-28T14:00:13.103Z,10.88
2022-12-28T14:05:26.753Z,1.85
2022-12-28T14:10:29.423Z,2.58
2022-12-28T14:15:37.347Z,6.03
2022-12-28T14:20:51.574Z,1.80
2022-12-28T14:25:56.008Z,12.03
2022-12-28T14:30:58.351Z,2.83
2022-12-28T14:36:03.697Z,2.67
2022-12-28T14:41:06.845Z,2.58
2022-12-28T14:46:28.916Z,13.30
2022-12-28T14:56:35.320Z,3.28
2022-12-28T15:01:43.785Z,2.88
2022-12-28T15:06:46.927Z,4.00
2022-12-28T15:11:49.327Z,16.30
2022-12-28T15:16:51.676Z,2.90
2022-12-28T15:21:53.961Z,3.55
2022-12-28T15:26:56.309Z,3.88
2022-12-28T15:31:58.685Z,0.50
2022-12-28T15:37:01.328Z,0.50
2022-12-28T15:42:03.848Z,0.63
2022-12-28T15:47:06.211Z,8.10
2022-12-28T15:52:08.594Z,1999.90
2022-12-28T15:57:12.928Z,0.80
2022-12-28T16:02:15.575Z,0.10
2022-12-28T16:07:19.318Z,0.20
2022-12-28T16:12:22.940Z,0.10
2022-12-28T16:17:25.590Z,0.20
2022-12-28T16:22:28.126Z,0.40
2022-12-28T16:27:30.597Z,0.68
2022-12-28T16:32:33.044Z,0.20
2022-12-28T16:37:35.577Z,0.20
2022-12-28T16:42:38.216Z,0.22
2022-12-28T16:47:44.593Z,0.80
2022-12-28T16:52:47.428Z,0.10
2022-12-28T16:57:49.724Z,0.10
2022-12-28T17:02:52.250Z,0.10
2022-12-28T17:07:54.831Z,0.10
2022-12-28T17:12:57.140Z,0.20
2022-12-28T17:17:59.457Z,1.08
2022-12-28T17:23:01.852Z,0.20
2022-12-28T17:28:04.607Z,0.28
2022-12-28T17:33:07.137Z,0.15
2022-12-28T17:38:09.420Z,1.23
2022-12-28T17:43:11.825Z,0.10
2022-12-28T17:48:15.161Z,12.50
2022-12-28T17:53:17.425Z,0.20
2022-12-28T17:58:19.691Z,0.20
2022-12-28T18:03:22.643Z,0.75
2022-12-28T18:08:25.197Z,1.95
2022-12-28T18:13:27.856Z,0.30
2022-12-28T18:18:30.593Z,0.40
2022-12-28T18:23:33.320Z,0.13
2022-12-28T18:28:36.289Z,1.65
2022-12-28T18:33:39.583Z,1.17
2022-12-28T18:38:43.396Z,0.10
2022-12-28T18:43:45.765Z,0.45
2022-12-28T18:48:48.351Z,0.73
2022-12-28T18:53:50.966Z,0.20
2022-12-28T18:58:54.822Z,0.65
2022-12-28T19:03:58.174Z,0.28
2022-12-28T19:09:01.325Z,2.50
2022-12-28T19:14:04.871Z,0.22
2022-12-28T19:19:07.464Z,0.40
2022-12-28T19:24:18.132Z,0.20
2022-12-28T19:29:20.420Z,0.10
2022-12-28T19:34:22.731Z,0.20
2022-12-28T19:39:25.375Z,0.20
2022-12-28T19:44:27.706Z,0.30
2022-12-28T19:49:29.973Z,0.28
2022-12-28T19:54:32.973Z,0.30
2022-12-28T19:59:35.249Z,0.30
2022-12-28T20:04:37.643Z,0.20
2022-12-28T20:09:40.258Z,0.30
2022-12-28T20:14:42.540Z,1.73
2022-12-28T20:19:44.793Z,0.10
2022-12-28T20:24:47.360Z,0.20
2022-12-28T20:29:49.640Z,0.20
2022-12-28T20:34:52.167Z,1.35
2022-12-28T20:39:54.443Z,0.30
2022-12-28T20:44:58.960Z,0.38
2022-12-28T20:50:03.887Z,0.20
2022-12-28T20:55:08.328Z,0.40
2022-12-28T21:00:11.146Z,0.20
2022-12-28T21:05:13.435Z,0.10
2022-12-28T21:10:15.800Z,0.13
2022-12-28T21:15:18.325Z,0.73
2022-12-28T21:20:20.602Z,0.20
2022-12-28T21:25:22.942Z,0.73
2022-12-28T21:30:25.237Z,0.10
2022-12-28T21:35:33.688Z,0.20
2022-12-28T21:40:39.232Z,0.10
2022-12-28T21:45:41.590Z,0.20
2022-12-28T21:50:43.908Z,0.77
2022-12-28T21:55:46.498Z,0.20
2022-12-28T22:01:24.218Z,0.10
2022-12-28T22:06:26.703Z,0.63
2022-12-28T22:11:47.537Z,0.52
2022-12-28T22:16:49.875Z,0.00
2022-12-28T22:21:52.200Z,0.20
2022-12-28T22:26:54.845Z,0.10
2022-12-28T22:31:57.299Z,0.45
2022-12-28T22:36:59.622Z,0.10
2022-12-28T22:42:01.940Z,0.20
2022-12-28T22:47:04.781Z,1.02
2022-12-28T22:52:07.087Z,0.20
2022-12-28T22:57:09.347Z,0.08
2022-12-28T23:02:11.890Z,0.10
2022-12-28T23:07:14.323Z,7.53
2022-12-28T23:12:16.605Z,0.20
2022-12-28T23:17:19.059Z,0.10
2022-12-28T23:22:42.736Z,0.17
2022-12-28T23:27:46.410Z,0.10
2022-12-28T23:32:50.278Z,0.60
2022-12-28T23:37:53.572Z,0.20
2022-12-28T23:42:56.134Z,0.20
2022-12-28T23:47:58.755Z,0.25
2022-12-28T23:53:01.096Z,0.70
2022-12-28T23:58:03.489Z,0.20
